sensor_id;sensor_type;location;lat;lon;timestamp;pressure;altitude;pressure_sealevel;temperature;humidity
60820;BME280;46641;48.904;9.126;2023-04-22T00:00:10;97944.91;;;17.29;51.73
60820;BME280;46641;48.904;9.126;2023-04-22T00:05:04;97934.75;;;17.26;51.36
60820;BME280;46641;48.904;9.126;2023-04-22T00:09:55;97929.84;;;17.23;51.52
60820;BME280;46641;48.904;9.126;2023-04-22T00:14:46;97930.88;;;17.22;51.56
60820;BME280;46641;48.904;9.126;2023-04-22T00:19:36;97931.06;;;17.21;51.51
60820;BME280;46641;48.904;9.126;2023-04-22T00:24:26;97931.28;;;17.19;51.60
60820;BME280;46641;48.904;9.126;2023-04-22T00:29:16;97931.69;;;17.16;51.49
60820;BME280;46641;48.904;9.126;2023-04-22T00:34:07;97932.09;;;17.13;51.38
60820;BME280;46641;48.904;9.126;2023-04-22T00:38:57;97919.06;;;17.12;51.65
60820;BME280;46641;48.904;9.126;2023-04-22T00:43:47;97920.28;;;17.09;51.48
60820;BME280;46641;48.904;9.126;2023-04-22T00:48:38;97914.41;;;17.07;51.71
60820;BME280;46641;48.904;9.126;2023-04-22T00:53:28;97919.28;;;17.03;51.43
60820;BME280;46641;48.904;9.126;2023-04-22T00:58:19;97936.38;;;17.01;51.73
60820;BME280;46641;48.904;9.126;2023-04-22T01:03:10;97927.81;;;16.99;51.79
60820;BME280;46641;48.904;9.126;2023-04-22T01:08:01;97924.56;;;16.97;51.78
60820;BME280;46641;48.904;9.126;2023-04-22T01:12:51;97928.22;;;16.96;51.73
60820;BME280;46641;48.904;9.126;2023-04-22T01:17:41;97925.78;;;16.94;51.69
60820;BME280;46641;48.904;9.126;2023-04-22T01:22:35;97925.38;;;16.91;51.80
60820;BME280;46641;48.904;9.126;2023-04-22T01:27:29;97919.69;;;16.87;51.79
60820;BME280;46641;48.904;9.126;2023-04-22T01:32:20;97917.03;;;16.87;51.71
60820;BME280;46641;48.904;9.126;2023-04-22T01:37:10;97925.16;;;16.86;51.64
60820;BME280;46641;48.904;9.126;2023-04-22T01:42:01;97918.44;;;16.83;51.65
60820;BME280;46641;48.904;9.126;2023-04-22T01:46:52;97923.94;;;16.81;51.83
60820;BME280;46641;48.904;9.126;2023-04-22T01:51:42;97924.97;;;16.80;51.68
60820;BME280;46641;48.904;9.126;2023-04-22T01:56:34;97928.00;;;16.77;51.66
60820;BME280;46641;48.904;9.126;2023-04-22T02:01:24;97925.56;;;16.76;51.81
60820;BME280;46641;48.904;9.126;2023-04-22T02:06:14;97925.75;;;16.74;51.79
60820;BME280;46641;48.904;9.126;2023-04-22T02:11:05;97932.22;;;16.72;51.80
60820;BME280;46641;48.904;9.126;2023-04-22T02:15:55;97948.09;;;16.72;51.78
60820;BME280;46641;48.904;9.126;2023-04-22T02:20:45;97946.06;;;16.67;51.83
60820;BME280;46641;48.904;9.126;2023-04-22T02:25:37;97942.78;;;16.65;51.72
60820;BME280;46641;48.904;9.126;2023-04-22T02:30:28;97946.63;;;16.63;51.93
60820;BME280;46641;48.904;9.126;2023-04-22T02:35:18;97942.78;;;16.58;52.02
60820;BME280;46641;48.904;9.126;2023-04-22T02:40:09;97945.59;;;16.57;52.03
60820;BME280;46641;48.904;9.126;2023-04-22T02:44:59;97947.03;;;16.53;51.89
60820;BME280;46641;48.904;9.126;2023-04-22T02:49:49;97947.03;;;16.53;52.05
60820;BME280;46641;48.904;9.126;2023-04-22T02:54:40;97950.47;;;16.53;51.94
60820;BME280;46641;48.904;9.126;2023-04-22T02:59:30;97950.88;;;16.50;52.06
60820;BME280;46641;48.904;9.126;2023-04-22T03:04:21;97952.28;;;16.46;51.99
60820;BME280;46641;48.904;9.126;2023-04-22T03:09:11;97936.84;;;16.43;52.22
60820;BME280;46641;48.904;9.126;2023-04-22T03:14:01;97940.50;;;16.42;52.24
60820;BME280;46641;48.904;9.126;2023-04-22T03:18:51;97933.16;;;16.38;52.03
60820;BME280;46641;48.904;9.126;2023-04-22T03:23:42;97939.47;;;16.36;51.90
60820;BME280;46641;48.904;9.126;2023-04-22T03:28:32;97944.13;;;16.34;52.02
60820;BME280;46641;48.904;9.126;2023-04-22T03:33:22;97939.03;;;16.33;52.22
60820;BME280;46641;48.904;9.126;2023-04-22T03:38:13;97949.19;;;16.29;52.26
60820;BME280;46641;48.904;9.126;2023-04-22T03:43:03;97954.88;;;16.26;52.20
60820;BME280;46641;48.904;9.126;2023-04-22T03:47:53;97953.25;;;16.25;52.15
60820;BME280;46641;48.904;9.126;2023-04-22T03:52:43;97957.69;;;16.25;52.12
60820;BME280;46641;48.904;9.126;2023-04-22T03:57:34;97962.75;;;16.20;52.50
60820;BME280;46641;48.904;9.126;2023-04-22T04:02:24;97961.31;;;16.17;52.18
60820;BME280;46641;48.904;9.126;2023-04-22T04:07:15;97955.22;;;16.17;52.18
60820;BME280;46641;48.904;9.126;2023-04-22T04:12:05;97951.97;;;16.15;52.24
60820;BME280;46641;48.904;9.126;2023-04-22T04:16:56;97944.84;;;16.15;52.10
60820;BME280;46641;48.904;9.126;2023-04-22T04:21:46;97945.44;;;16.10;52.31
60820;BME280;46641;48.904;9.126;2023-04-22T04:26:36;97941.75;;;16.05;52.23
60820;BME280;46641;48.904;9.126;2023-04-22T04:31:27;97944.63;;;16.03;52.34
60820;BME280;46641;48.904;9.126;2023-04-22T04:36:18;97936.28;;;16.00;52.73
60820;BME280;46641;48.904;9.126;2023-04-22T04:41:08;97933.44;;;16.01;52.25
60820;BME280;46641;48.904;9.126;2023-04-22T04:45:59;97932.84;;;15.99;52.39
60820;BME280;46641;48.904;9.126;2023-04-22T04:50:50;97934.84;;;15.97;52.32
60820;BME280;46641;48.904;9.126;2023-04-22T04:55:42;97933.59;;;15.93;52.55
60820;BME280;46641;48.904;9.126;2023-04-22T05:00:33;97931.16;;;15.92;52.41
60820;BME280;46641;48.904;9.126;2023-04-22T05:05:23;97926.91;;;15.91;52.50
60820;BME280;46641;48.904;9.126;2023-04-22T05:10:14;97927.06;;;15.89;52.58
60820;BME280;46641;48.904;9.126;2023-04-22T05:15:05;97937.22;;;15.85;52.49
60820;BME280;46641;48.904;9.126;2023-04-22T05:19:56;97929.47;;;15.77;53.20
60820;BME280;46641;48.904;9.126;2023-04-22T05:24:46;97935.41;;;15.58;54.70
60820;BME280;46641;48.904;9.126;2023-04-22T05:29:36;97939.78;;;15.44;55.20
60820;BME280;46641;48.904;9.126;2023-04-22T05:34:26;97939.75;;;15.37;55.33
60820;BME280;46641;48.904;9.126;2023-04-22T05:39:17;97947.59;;;15.31;56.08
60820;BME280;46641;48.904;9.126;2023-04-22T05:44:07;97941.88;;;15.27;56.23
60820;BME280;46641;48.904;9.126;2023-04-22T05:48:58;97933.84;;;15.35;56.20
60820;BME280;46641;48.904;9.126;2023-04-22T05:53:49;97949.56;;;15.50;55.55
60820;BME280;46641;48.904;9.126;2023-04-22T05:58:39;97955.28;;;15.54;55.39
60820;BME280;46641;48.904;9.126;2023-04-22T06:03:29;97957.69;;;15.55;55.13
60820;BME280;46641;48.904;9.126;2023-04-22T06:08:20;97940.88;;;15.56;54.74
60820;BME280;46641;48.904;9.126;2023-04-22T06:13:10;97953.88;;;15.58;54.73
60820;BME280;46641;48.904;9.126;2023-04-22T06:18:01;97957.31;;;15.58;54.81
60820;BME280;46641;48.904;9.126;2023-04-22T06:22:51;97950.03;;;15.60;54.82
60820;BME280;46641;48.904;9.126;2023-04-22T06:27:41;97963.03;;;15.62;54.76
60820;BME280;46641;48.904;9.126;2023-04-22T06:32:31;97971.56;;;15.64;54.60
60820;BME280;46641;48.904;9.126;2023-04-22T06:37:21;97967.50;;;15.61;54.60
60820;BME280;46641;48.904;9.126;2023-04-22T06:42:12;97969.91;;;15.63;55.12
60820;BME280;46641;48.904;9.126;2023-04-22T06:47:02;97978.75;;;15.70;54.38
60820;BME280;46641;48.904;9.126;2023-04-22T06:51:53;97961.31;;;15.76;54.13
60820;BME280;46641;48.904;9.126;2023-04-22T06:56:43;97961.72;;;15.79;54.04
60820;BME280;46641;48.904;9.126;2023-04-22T07:01:33;97978.81;;;15.83;54.11
60820;BME280;46641;48.904;9.126;2023-04-22T07:06:24;97974.16;;;15.85;53.63
60820;BME280;46641;48.904;9.126;2023-04-22T07:11:14;97966.66;;;15.89;54.00
60820;BME280;46641;48.904;9.126;2023-04-22T07:16:05;97963.63;;;15.92;53.71
60820;BME280;46641;48.904;9.126;2023-04-22T07:20:55;97952.25;;;15.92;53.83
60820;BME280;46641;48.904;9.126;2023-04-22T07:25:45;97951.38;;;15.78;55.29
60820;BME280;46641;48.904;9.126;2023-04-22T07:30:36;97951.81;;;15.25;57.39
60820;BME280;46641;48.904;9.126;2023-04-22T07:35:26;97945.69;;;15.74;55.52
60820;BME280;46641;48.904;9.126;2023-04-22T07:40:17;97937.25;;;15.99;54.95
60820;BME280;46641;48.904;9.126;2023-04-22T07:45:08;97938.34;;;16.11;54.46
60820;BME280;46641;48.904;9.126;2023-04-22T07:49:58;97947.72;;;16.20;54.23
60820;BME280;46641;48.904;9.126;2023-04-22T07:54:48;97947.97;;;16.25;54.09
60820;BME280;46641;48.904;9.126;2023-04-22T07:59:39;97950.00;;;16.30;53.91
60820;BME280;46641;48.904;9.126;2023-04-22T08:04:29;97963.44;;;16.35;53.90
60820;BME280;46641;48.904;9.126;2023-04-22T08:09:20;97961.41;;;16.37;53.93
60820;BME280;46641;48.904;9.126;2023-04-22T08:14:10;97972.19;;;16.42;53.72
60820;BME280;46641;48.904;9.126;2023-04-22T08:19:00;97968.75;;;16.48;53.32
60820;BME280;46641;48.904;9.126;2023-04-22T08:23:51;97967.13;;;16.54;53.41
60820;BME280;46641;48.904;9.126;2023-04-22T08:28:42;97966.75;;;16.57;53.39
60820;BME280;46641;48.904;9.126;2023-04-22T08:33:33;97966.75;;;16.64;53.26
60820;BME280;46641;48.904;9.126;2023-04-22T08:38:23;97954.97;;;16.66;53.04
60820;BME280;46641;48.904;9.126;2023-04-22T08:43:13;97957.84;;;16.71;53.27
60820;BME280;46641;48.904;9.126;2023-04-22T08:48:04;97949.34;;;16.76;53.05
60820;BME280;46641;48.904;9.126;2023-04-22T08:52:54;97952.63;;;16.85;52.89
60820;BME280;46641;48.904;9.126;2023-04-22T08:57:46;97951.19;;;16.89;53.03
60820;BME280;46641;48.904;9.126;2023-04-22T09:02:37;97948.97;;;16.99;52.67
60820;BME280;46641;48.904;9.126;2023-04-22T09:07:31;97943.28;;;17.09;52.60
60820;BME280;46641;48.904;9.126;2023-04-22T09:12:22;97933.50;;;17.16;52.73
60820;BME280;46641;48.904;9.126;2023-04-22T09:17:16;97928.81;;;17.24;52.46
60820;BME280;46641;48.904;9.126;2023-04-22T09:22:12;97931.28;;;17.33;52.50
60820;BME280;46641;48.904;9.126;2023-04-22T09:27:05;97929.44;;;17.40;52.07
60820;BME280;46641;48.904;9.126;2023-04-22T09:31:56;97929.81;;;17.50;52.04
60820;BME280;46641;48.904;9.126;2023-04-22T09:36:49;97924.53;;;17.57;52.07
60820;BME280;46641;48.904;9.126;2023-04-22T09:41:40;97916.56;;;17.63;52.46
60820;BME280;46641;48.904;9.126;2023-04-22T09:46:31;97923.28;;;17.72;53.02
60820;BME280;46641;48.904;9.126;2023-04-22T09:51:23;97919.19;;;17.83;53.25
60820;BME280;46641;48.904;9.126;2023-04-22T09:56:14;97903.25;;;17.96;53.77
60820;BME280;46641;48.904;9.126;2023-04-22T10:01:04;97904.25;;;18.02;53.58
60820;BME280;46641;48.904;9.126;2023-04-22T10:05:56;97892.00;;;18.14;53.63
60820;BME280;46641;48.904;9.126;2023-04-22T10:10:46;97888.47;;;18.27;54.02
60820;BME280;46641;48.904;9.126;2023-04-22T10:16:10;97886.13;;;18.44;53.77
60820;BME280;46641;48.904;9.126;2023-04-22T10:20:55;97883.78;;;18.61;53.65
60820;BME280;46641;48.904;9.126;2023-04-22T10:25:46;97881.28;;;18.73;54.42
60820;BME280;46641;48.904;9.126;2023-04-22T10:30:38;97888.91;;;18.87;54.80
60820;BME280;46641;48.904;9.126;2023-04-22T10:35:28;97879.59;;;19.03;54.67
60820;BME280;46641;48.904;9.126;2023-04-22T10:40:19;97872.13;;;19.19;54.74
60820;BME280;46641;48.904;9.126;2023-04-22T10:45:12;97866.47;;;19.33;54.62
60820;BME280;46641;48.904;9.126;2023-04-22T10:50:23;97854.25;;;19.51;53.93
60820;BME280;46641;48.904;9.126;2023-04-22T10:55:15;97852.28;;;19.65;54.88
60820;BME280;46641;48.904;9.126;2023-04-22T11:00:26;97842.09;;;19.80;53.68
60820;BME280;46641;48.904;9.126;2023-04-22T11:05:19;97839.03;;;19.95;54.63
60820;BME280;46641;48.904;9.126;2023-04-22T11:10:10;97833.78;;;20.06;55.11
60820;BME280;46641;48.904;9.126;2023-04-22T11:15:15;97826.59;;;20.25;54.24
60820;BME280;46641;48.904;9.126;2023-04-22T11:20:06;97827.66;;;20.36;54.70
60820;BME280;46641;48.904;9.126;2023-04-22T11:24:58;97822.53;;;20.53;54.79
60820;BME280;46641;48.904;9.126;2023-04-22T11:30:09;97825.56;;;20.68;54.52
60820;BME280;46641;48.904;9.126;2023-04-22T11:35:05;97820.63;;;20.84;54.42
60820;BME280;46641;48.904;9.126;2023-04-22T11:40:00;97822.25;;;20.96;54.52
60820;BME280;46641;48.904;9.126;2023-04-22T11:44:51;97823.03;;;21.09;55.04
60820;BME280;46641;48.904;9.126;2023-04-22T11:49:53;97815.63;;;21.22;53.88
60820;BME280;46641;48.904;9.126;2023-04-22T11:54:43;97814.63;;;21.35;54.29
60820;BME280;46641;48.904;9.126;2023-04-22T11:59:34;97807.06;;;21.44;54.18
60820;BME280;46641;48.904;9.126;2023-04-22T12:04:24;97816.09;;;21.55;54.04
60820;BME280;46641;48.904;9.126;2023-04-22T12:09:15;97806.66;;;21.64;53.99
60820;BME280;46641;48.904;9.126;2023-04-22T12:14:05;97801.53;;;21.74;53.27
60820;BME280;46641;48.904;9.126;2023-04-22T12:18:55;97809.03;;;21.77;53.25
60820;BME280;46641;48.904;9.126;2023-04-22T12:23:57;97812.63;;;21.83;52.48
60820;BME280;46641;48.904;9.126;2023-04-22T12:28:55;97803.56;;;21.84;53.12
60820;BME280;46641;48.904;9.126;2023-04-22T12:33:45;97806.13;;;21.90;52.94
60820;BME280;46641;48.904;9.126;2023-04-22T12:38:36;97805.63;;;21.93;52.62
60820;BME280;46641;48.904;9.126;2023-04-22T12:43:27;97807.13;;;22.01;51.39
60820;BME280;46641;48.904;9.126;2023-04-22T12:48:17;97803.19;;;22.04;52.00
60820;BME280;46641;48.904;9.126;2023-04-22T12:53:08;97814.38;;;22.06;51.12
60820;BME280;46641;48.904;9.126;2023-04-22T12:57:58;97816.34;;;22.10;50.27
60820;BME280;46641;48.904;9.126;2023-04-22T13:02:49;97827.72;;;22.17;49.86
60820;BME280;46641;48.904;9.126;2023-04-22T13:07:40;97814.13;;;22.19;46.51
60820;BME280;46641;48.904;9.126;2023-04-22T13:12:31;97822.78;;;21.57;46.10
60820;BME280;46641;48.904;9.126;2023-04-22T13:17:21;97820.63;;;21.83;48.53
60820;BME280;46641;48.904;9.126;2023-04-22T13:22:11;97831.53;;;22.10;48.33
60820;BME280;46641;48.904;9.126;2023-04-22T13:27:02;97831.03;;;22.13;46.54
60820;BME280;46641;48.904;9.126;2023-04-22T13:31:52;97846.13;;;22.19;46.62
60820;BME280;46641;48.904;9.126;2023-04-22T13:36:42;97830.97;;;22.36;46.51
60820;BME280;46641;48.904;9.126;2023-04-22T13:41:33;97833.69;;;22.25;41.11
60820;BME280;46641;48.904;9.126;2023-04-22T13:46:24;97827.28;;;21.57;41.21
60820;BME280;46641;48.904;9.126;2023-04-22T13:51:15;97827.59;;;21.72;41.58
60820;BME280;46641;48.904;9.126;2023-04-22T13:56:05;97826.28;;;21.86;40.61
60820;BME280;46641;48.904;9.126;2023-04-22T14:00:56;97815.16;;;21.89;40.22
60820;BME280;46641;48.904;9.126;2023-04-22T14:05:46;97821.25;;;22.02;41.16
60820;BME280;46641;48.904;9.126;2023-04-22T14:10:36;97814.13;;;22.19;40.60
60820;BME280;46641;48.904;9.126;2023-04-22T14:15:27;97806.59;;;22.16;39.38
60820;BME280;46641;48.904;9.126;2023-04-22T14:20:17;97808.31;;;22.22;39.20
60820;BME280;46641;48.904;9.126;2023-04-22T14:25:08;97799.63;;;22.44;38.36
60820;BME280;46641;48.904;9.126;2023-04-22T14:29:58;97801.09;;;22.51;38.98
60820;BME280;46641;48.904;9.126;2023-04-22T14:34:48;97803.84;;;22.73;39.41
60820;BME280;46641;48.904;9.126;2023-04-22T14:39:39;97802.53;;;22.93;40.90
60820;BME280;46641;48.904;9.126;2023-04-22T14:44:29;97797.13;;;23.04;37.67
60820;BME280;46641;48.904;9.126;2023-04-22T14:49:20;97803.81;;;23.07;39.30
60820;BME280;46641;48.904;9.126;2023-04-22T14:54:10;97803.78;;;23.02;39.44
60820;BME280;46641;48.904;9.126;2023-04-22T14:59:01;97806.09;;;23.15;39.70
60820;BME280;46641;48.904;9.126;2023-04-22T15:03:51;97797.28;;;23.15;39.17
60820;BME280;46641;48.904;9.126;2023-04-22T15:08:41;97801.66;;;23.04;37.85
60820;BME280;46641;48.904;9.126;2023-04-22T15:13:32;97804.75;;;22.96;39.20
60820;BME280;46641;48.904;9.126;2023-04-22T15:18:22;97802.84;;;23.13;40.04
60820;BME280;46641;48.904;9.126;2023-04-22T15:23:14;97803.28;;;23.05;38.15
60820;BME280;46641;48.904;9.126;2023-04-22T15:28:04;97801.16;;;22.90;38.57
60820;BME280;46641;48.904;9.126;2023-04-22T15:32:54;97812.41;;;22.75;37.02
60820;BME280;46641;48.904;9.126;2023-04-22T15:37:44;97801.25;;;22.78;39.03
60820;BME280;46641;48.904;9.126;2023-04-22T15:42:35;97801.00;;;22.80;38.32
60820;BME280;46641;48.904;9.126;2023-04-22T15:47:27;97800.03;;;22.86;39.66
60820;BME280;46641;48.904;9.126;2023-04-22T15:52:17;97794.69;;;23.03;40.18
60820;BME280;46641;48.904;9.126;2023-04-22T15:57:08;97803.41;;;23.15;40.21
60820;BME280;46641;48.904;9.126;2023-04-22T16:01:59;97799.63;;;23.11;40.01
60820;BME280;46641;48.904;9.126;2023-04-22T16:06:49;97804.00;;;23.00;39.71
60820;BME280;46641;48.904;9.126;2023-04-22T16:11:40;97812.59;;;23.02;40.14
60820;BME280;46641;48.904;9.126;2023-04-22T16:16:31;97808.53;;;23.00;39.54
60820;BME280;46641;48.904;9.126;2023-04-22T16:21:21;97804.97;;;22.94;39.19
60820;BME280;46641;48.904;9.126;2023-04-22T16:26:11;97810.22;;;22.89;39.80
60820;BME280;46641;48.904;9.126;2023-04-22T16:31:02;97815.31;;;22.91;41.10
60820;BME280;46641;48.904;9.126;2023-04-22T16:35:52;97807.75;;;22.20;41.00
60820;BME280;46641;48.904;9.126;2023-04-22T16:40:42;97813.25;;;22.02;42.33
60820;BME280;46641;48.904;9.126;2023-04-22T16:45:33;97808.84;;;22.53;41.92
60820;BME280;46641;48.904;9.126;2023-04-22T16:50:23;97804.97;;;22.77;41.29
60820;BME280;46641;48.904;9.126;2023-04-22T16:55:14;97814.19;;;22.86;41.67
60820;BME280;46641;48.904;9.126;2023-04-22T17:00:06;97815.78;;;22.87;41.36
60820;BME280;46641;48.904;9.126;2023-04-22T17:04:57;97811.78;;;22.85;41.69
60820;BME280;46641;48.904;9.126;2023-04-22T17:09:47;97814.91;;;22.82;41.90
60820;BME280;46641;48.904;9.126;2023-04-22T17:14:38;97817.28;;;22.78;42.33
60820;BME280;46641;48.904;9.126;2023-04-22T17:19:28;97820.44;;;22.75;42.24
60820;BME280;46641;48.904;9.126;2023-04-22T17:24:18;97815.00;;;22.70;42.51
60820;BME280;46641;48.904;9.126;2023-04-22T17:29:09;97820.81;;;22.67;42.21
60820;BME280;46641;48.904;9.126;2023-04-22T17:33:59;97824.44;;;22.61;41.97
60820;BME280;46641;48.904;9.126;2023-04-22T17:38:49;97827.59;;;22.58;42.53
60820;BME280;46641;48.904;9.126;2023-04-22T17:43:40;97837.94;;;22.54;42.31
60820;BME280;46641;48.904;9.126;2023-04-22T17:48:30;97846.41;;;22.51;42.71
60820;BME280;46641;48.904;9.126;2023-04-22T17:53:20;97843.44;;;22.48;42.80
60820;BME280;46641;48.904;9.126;2023-04-22T17:58:10;97859.09;;;22.44;42.69
60820;BME280;46641;48.904;9.126;2023-04-22T18:03:01;97864.91;;;22.41;42.49
60820;BME280;46641;48.904;9.126;2023-04-22T18:07:53;97882.19;;;22.38;42.68
60820;BME280;46641;48.904;9.126;2023-04-22T18:12:49;97884.78;;;22.33;42.75
60820;BME280;46641;48.904;9.126;2023-04-22T18:17:40;97879.94;;;22.30;43.24
60820;BME280;46641;48.904;9.126;2023-04-22T18:22:30;97886.78;;;22.26;43.20
60820;BME280;46641;48.904;9.126;2023-04-22T18:27:20;97890.97;;;22.22;42.57
60820;BME280;46641;48.904;9.126;2023-04-22T18:32:11;97893.28;;;22.19;42.57
60820;BME280;46641;48.904;9.126;2023-04-22T18:37:01;97916.34;;;22.13;43.13
60820;BME280;46641;48.904;9.126;2023-04-22T18:41:52;97925.84;;;22.09;43.20
60820;BME280;46641;48.904;9.126;2023-04-22T18:46:42;97939.91;;;22.04;43.10
60820;BME280;46641;48.904;9.126;2023-04-22T18:51:32;97945.91;;;22.00;42.69
60820;BME280;46641;48.904;9.126;2023-04-22T18:56:23;97955.69;;;21.94;42.69
60820;BME280;46641;48.904;9.126;2023-04-22T19:01:13;97965.16;;;21.90;42.92
60820;BME280;46641;48.904;9.126;2023-04-22T19:06:04;97973.88;;;21.85;42.91
60820;BME280;46641;48.904;9.126;2023-04-22T19:10:54;97975.84;;;21.78;43.07
60820;BME280;46641;48.904;9.126;2023-04-22T19:15:45;97982.19;;;21.77;43.20
60820;BME280;46641;48.904;9.126;2023-04-22T19:20:35;97978.38;;;21.73;43.37
60820;BME280;46641;48.904;9.126;2023-04-22T19:25:25;97992.16;;;21.70;43.46
60820;BME280;46641;48.904;9.126;2023-04-22T19:30:18;97985.69;;;21.66;43.71
60820;BME280;46641;48.904;9.126;2023-04-22T19:35:09;97963.44;;;21.60;43.76
60820;BME280;46641;48.904;9.126;2023-04-22T19:40:05;97972.69;;;21.58;43.77
60820;BME280;46641;48.904;9.126;2023-04-22T19:44:56;97960.91;;;21.54;43.92
60820;BME280;46641;48.904;9.126;2023-04-22T19:49:48;97965.06;;;21.50;43.98
60820;BME280;46641;48.904;9.126;2023-04-22T19:54:39;97960.66;;;21.43;44.16
60820;BME280;46641;48.904;9.126;2023-04-22T19:59:30;97952.09;;;21.41;43.92
60820;BME280;46641;48.904;9.126;2023-04-22T20:04:21;97946.41;;;21.38;43.97
60820;BME280;46641;48.904;9.126;2023-04-22T20:09:12;97966.53;;;21.34;44.02
60820;BME280;46641;48.904;9.126;2023-04-22T20:14:03;97971.75;;;21.29;44.37
60820;BME280;46641;48.904;9.126;2023-04-22T20:18:56;97964.22;;;21.26;44.31
60820;BME280;46641;48.904;9.126;2023-04-22T20:23:48;97961.44;;;21.20;44.59
60820;BME280;46641;48.904;9.126;2023-04-22T20:28:47;97946.97;;;21.16;44.92
60820;BME280;46641;48.904;9.126;2023-04-22T20:33:39;97938.84;;;21.11;44.53
60820;BME280;46641;48.904;9.126;2023-04-22T20:38:30;97941.16;;;21.08;44.98
60820;BME280;46641;48.904;9.126;2023-04-22T20:43:21;97940.00;;;21.04;44.92
60820;BME280;46641;48.904;9.126;2023-04-22T20:48:11;97942.31;;;21.00;45.22
60820;BME280;46641;48.904;9.126;2023-04-22T20:53:02;97948.53;;;20.94;44.91
60820;BME280;46641;48.904;9.126;2023-04-22T20:57:52;97940.78;;;20.92;44.88
60820;BME280;46641;48.904;9.126;2023-04-22T21:02:43;97946.78;;;20.88;44.76
60820;BME280;46641;48.904;9.126;2023-04-22T21:07:33;97944.59;;;20.85;45.18
60820;BME280;46641;48.904;9.126;2023-04-22T21:12:24;97946.88;;;20.81;45.01
60820;BME280;46641;48.904;9.126;2023-04-22T21:17:18;97933.22;;;20.77;45.14
60820;BME280;46641;48.904;9.126;2023-04-22T21:22:09;97935.53;;;20.74;45.09
60820;BME280;46641;48.904;9.126;2023-04-22T21:27:00;97939.66;;;20.70;45.11
60820;BME280;46641;48.904;9.126;2023-04-22T21:31:50;97949.94;;;20.66;45.31
60820;BME280;46641;48.904;9.126;2023-04-22T21:36:41;97952.25;;;20.63;45.12
60820;BME280;46641;48.904;9.126;2023-04-22T21:41:31;97960.69;;;20.60;45.06
60820;BME280;46641;48.904;9.126;2023-04-22T21:46:21;97967.50;;;20.56;45.14
60820;BME280;46641;48.904;9.126;2023-04-22T21:51:13;97965.28;;;20.52;45.05
60820;BME280;46641;48.904;9.126;2023-04-22T21:56:03;97968.81;;;20.46;45.28
60820;BME280;46641;48.904;9.126;2023-04-22T22:00:54;97962.06;;;20.44;45.03
60820;BME280;46641;48.904;9.126;2023-04-22T22:05:45;97959.06;;;20.40;45.05
60820;BME280;46641;48.904;9.126;2023-04-22T22:10:35;97957.69;;;20.38;45.34
60820;BME280;46641;48.904;9.126;2023-04-22T22:15:25;97953.81;;;20.34;45.25
60820;BME280;46641;48.904;9.126;2023-04-22T22:20:15;97960.63;;;20.29;45.32
60820;BME280;46641;48.904;9.126;2023-04-22T22:25:11;97964.53;;;20.27;45.48
60820;BME280;46641;48.904;9.126;2023-04-22T22:30:02;97968.44;;;20.24;45.37
60820;BME280;46641;48.904;9.126;2023-04-22T22:34:52;97958.25;;;20.21;45.53
60820;BME280;46641;48.904;9.126;2023-04-22T22:39:43;97964.88;;;20.19;45.54
60820;BME280;46641;48.904;9.126;2023-04-22T22:44:33;97958.94;;;20.17;45.54
60820;BME280;46641;48.904;9.126;2023-04-22T22:49:23;97951.41;;;20.14;45.50
60820;BME280;46641;48.904;9.126;2023-04-22T22:54:13;97953.50;;;20.12;45.73
60820;BME280;46641;48.904;9.126;2023-04-22T22:59:04;97952.53;;;20.06;45.75
60820;BME280;46641;48.904;9.126;2023-04-22T23:03:54;97954.38;;;20.05;45.67
60820;BME280;46641;48.904;9.126;2023-04-22T23:08:44;97942.56;;;20.01;45.69
60820;BME280;46641;48.904;9.126;2023-04-22T23:13:35;97943.84;;;19.99;45.84
60820;BME280;46641;48.904;9.126;2023-04-22T23:18:25;97949.34;;;19.97;45.60
60820;BME280;46641;48.904;9.126;2023-04-22T23:23:16;97940.22;;;19.93;45.96
60820;BME280;46641;48.904;9.126;2023-04-22T23:28:07;97935.34;;;19.90;45.95
60820;BME280;46641;48.904;9.126;2023-04-22T23:33:01;97929.44;;;19.88;46.06
60820;BME280;46641;48.904;9.126;2023-04-22T23:37:52;97932.53;;;19.85;46.05
60820;BME280;46641;48.904;9.126;2023-04-22T23:42:43;97927.66;;;19.82;45.83
60820;BME280;46641;48.904;9.126;2023-04-22T23:47:33;97921.97;;;19.78;46.09
60820;BME280;46641;48.904;9.126;2023-04-22T23:52:23;97921.16;;;19.78;46.18
60820;BME280;46641;48.904;9.126;2023-04-22T23:57:15;97923.22;;;19.76;46.17
